sensor_id;sensor_type;location;lat;lon;timestamp;P1;durP1;ratioP1;P2;durP2;ratioP2
76107;SDS011;64834;52.516;10.528;2024-01-10T00:01:13;6.43;;;2.97;;
76107;SDS011;64834;52.516;10.528;2024-01-10T00:03:38;8.85;;;3.60;;
76107;SDS011;64834;52.516;10.528;2024-01-10T00:06:03;8.20;;;2.67;;
76107;SDS011;64834;52.516;10.528;2024-01-10T00:08:29;5.90;;;2.42;;
76107;SDS011;64834;52.516;10.528;2024-01-10T00:10:54;7.90;;;3.25;;
76107;SDS011;64834;52.516;10.528;2024-01-10T00:13:20;9.30;;;2.97;;
76107;SDS011;64834;52.516;10.528;2024-01-10T00:15:47;7.78;;;3.00;;
76107;SDS011;64834;52.516;10.528;2024-01-10T00:18:13;8.60;;;3.15;;
76107;SDS011;64834;52.516;10.528;2024-01-10T00:20:38;5.68;;;3.03;;
76107;SDS011;64834;52.516;10.528;2024-01-10T00:23:04;6.68;;;2.97;;
76107;SDS011;64834;52.516;10.528;2024-01-10T00:25:31;7.30;;;2.60;;
76107;SDS011;64834;52.516;10.528;2024-01-10T00:27:56;7.68;;;2.72;;
76107;SDS011;64834;52.516;10.528;2024-01-10T00:30:22;8.98;;;2.55;;
76107;SDS011;64834;52.516;10.528;2024-01-10T00:32:47;6.03;;;2.92;;
76107;SDS011;64834;52.516;10.528;2024-01-10T00:35:12;7.70;;;2.17;;
76107;SDS011;64834;52.516;10.528;2024-01-10T00:37:37;4.63;;;2.53;;
76107;SDS011;64834;52.516;10.528;2024-01-10T00:40:03;5.75;;;2.58;;
76107;SDS011;64834;52.516;10.528;2024-01-10T00:42:29;9.18;;;2.90;;
76107;SDS011;64834;52.516;10.528;2024-01-10T00:44:54;5.15;;;2.60;;
76107;SDS011;64834;52.516;10.528;2024-01-10T00:47:19;9.75;;;3.42;;
76107;SDS011;64834;52.516;10.528;2024-01-10T00:49:45;7.40;;;3.38;;
76107;SDS011;64834;52.516;10.528;2024-01-10T00:52:10;7.70;;;2.70;;
76107;SDS011;64834;52.516;10.528;2024-01-10T00:54:35;7.35;;;3.45;;
76107;SDS011;64834;52.516;10.528;2024-01-10T00:57:01;7.35;;;2.78;;
76107;SDS011;64834;52.516;10.528;2024-01-10T00:59:26;7.38;;;3.15;;
76107;SDS011;64834;52.516;10.528;2024-01-10T01:01:51;7.75;;;3.30;;
76107;SDS011;64834;52.516;10.528;2024-01-10T01:04:17;8.50;;;2.70;;
76107;SDS011;64834;52.516;10.528;2024-01-10T01:06:43;6.75;;;3.53;;
76107;SDS011;64834;52.516;10.528;2024-01-10T01:09:08;7.35;;;3.58;;
76107;SDS011;64834;52.516;10.528;2024-01-10T01:11:33;6.10;;;2.92;;
76107;SDS011;64834;52.516;10.528;2024-01-10T01:13:59;5.30;;;2.90;;
76107;SDS011;64834;52.516;10.528;2024-01-10T01:16:24;8.00;;;2.97;;
76107;SDS011;64834;52.516;10.528;2024-01-10T01:18:49;7.78;;;3.40;;
76107;SDS011;64834;52.516;10.528;2024-01-10T01:21:14;4.85;;;2.60;;
76107;SDS011;64834;52.516;10.528;2024-01-10T01:23:40;5.90;;;2.60;;
76107;SDS011;64834;52.516;10.528;2024-01-10T01:26:05;5.45;;;2.78;;
76107;SDS011;64834;52.516;10.528;2024-01-10T01:28:31;8.55;;;3.13;;
76107;SDS011;64834;52.516;10.528;2024-01-10T01:30:56;6.35;;;3.42;;
76107;SDS011;64834;52.516;10.528;2024-01-10T01:33:22;8.35;;;2.95;;
76107;SDS011;64834;52.516;10.528;2024-01-10T01:35:47;8.43;;;3.10;;
76107;SDS011;64834;52.516;10.528;2024-01-10T01:38:13;7.40;;;3.30;;
76107;SDS011;64834;52.516;10.528;2024-01-10T01:40:38;10.00;;;3.85;;
76107;SDS011;64834;52.516;10.528;2024-01-10T01:43:20;6.55;;;3.40;;
76107;SDS011;64834;52.516;10.528;2024-01-10T01:45:46;6.05;;;2.40;;
76107;SDS011;64834;52.516;10.528;2024-01-10T01:48:13;7.28;;;2.92;;
76107;SDS011;64834;52.516;10.528;2024-01-10T01:50:38;11.30;;;3.70;;
76107;SDS011;64834;52.516;10.528;2024-01-10T01:53:05;5.95;;;2.40;;
76107;SDS011;64834;52.516;10.528;2024-01-10T01:55:30;8.45;;;3.17;;
76107;SDS011;64834;52.516;10.528;2024-01-10T01:57:56;7.10;;;2.85;;
76107;SDS011;64834;52.516;10.528;2024-01-10T02:00:21;9.57;;;4.18;;
76107;SDS011;64834;52.516;10.528;2024-01-10T02:02:46;10.80;;;4.32;;
76107;SDS011;64834;52.516;10.528;2024-01-10T02:05:13;9.60;;;4.05;;
76107;SDS011;64834;52.516;10.528;2024-01-10T02:07:40;8.30;;;2.50;;
76107;SDS011;64834;52.516;10.528;2024-01-10T02:10:06;9.43;;;3.50;;
76107;SDS011;64834;52.516;10.528;2024-01-10T02:12:32;7.13;;;2.95;;
76107;SDS011;64834;52.516;10.528;2024-01-10T02:14:57;7.45;;;3.80;;
76107;SDS011;64834;52.516;10.528;2024-01-10T02:17:22;8.68;;;3.20;;
76107;SDS011;64834;52.516;10.528;2024-01-10T02:19:48;11.43;;;4.30;;
76107;SDS011;64834;52.516;10.528;2024-01-10T02:22:13;10.65;;;4.03;;
76107;SDS011;64834;52.516;10.528;2024-01-10T02:24:38;6.72;;;3.03;;
76107;SDS011;64834;52.516;10.528;2024-01-10T02:27:04;7.88;;;3.42;;
76107;SDS011;64834;52.516;10.528;2024-01-10T02:29:30;9.45;;;4.25;;
76107;SDS011;64834;52.516;10.528;2024-01-10T02:31:55;6.05;;;2.88;;
76107;SDS011;64834;52.516;10.528;2024-01-10T02:34:20;7.40;;;3.40;;
76107;SDS011;64834;52.516;10.528;2024-01-10T02:36:46;7.63;;;3.78;;
76107;SDS011;64834;52.516;10.528;2024-01-10T02:39:11;6.10;;;3.83;;
76107;SDS011;64834;52.516;10.528;2024-01-10T02:41:36;9.80;;;4.47;;
76107;SDS011;64834;52.516;10.528;2024-01-10T02:44:02;8.88;;;3.20;;
76107;SDS011;64834;52.516;10.528;2024-01-10T02:46:27;8.63;;;3.63;;
76107;SDS011;64834;52.516;10.528;2024-01-10T02:48:53;9.82;;;3.28;;
76107;SDS011;64834;52.516;10.528;2024-01-10T02:51:21;10.45;;;3.97;;
76107;SDS011;64834;52.516;10.528;2024-01-10T02:53:46;6.68;;;3.13;;
76107;SDS011;64834;52.516;10.528;2024-01-10T02:56:12;8.00;;;3.03;;
76107;SDS011;64834;52.516;10.528;2024-01-10T02:58:37;7.00;;;3.50;;
76107;SDS011;64834;52.516;10.528;2024-01-10T03:01:02;9.35;;;3.50;;
76107;SDS011;64834;52.516;10.528;2024-01-10T03:03:28;11.95;;;4.13;;
76107;SDS011;64834;52.516;10.528;2024-01-10T03:05:53;8.68;;;3.53;;
76107;SDS011;64834;52.516;10.528;2024-01-10T03:08:19;9.27;;;3.53;;
76107;SDS011;64834;52.516;10.528;2024-01-10T03:10:44;9.02;;;3.80;;
76107;SDS011;64834;52.516;10.528;2024-01-10T03:13:09;11.02;;;4.63;;
76107;SDS011;64834;52.516;10.528;2024-01-10T03:15:35;7.85;;;3.10;;
76107;SDS011;64834;52.516;10.528;2024-01-10T03:18:00;10.55;;;3.72;;
76107;SDS011;64834;52.516;10.528;2024-01-10T03:20:25;11.68;;;3.63;;
76107;SDS011;64834;52.516;10.528;2024-01-10T03:22:51;10.25;;;3.90;;
76107;SDS011;64834;52.516;10.528;2024-01-10T03:25:16;9.65;;;3.67;;
76107;SDS011;64834;52.516;10.528;2024-01-10T03:27:41;10.98;;;4.15;;
76107;SDS011;64834;52.516;10.528;2024-01-10T03:30:07;11.50;;;3.83;;
76107;SDS011;64834;52.516;10.528;2024-01-10T03:32:32;11.10;;;3.67;;
76107;SDS011;64834;52.516;10.528;2024-01-10T03:34:58;10.43;;;3.95;;
76107;SDS011;64834;52.516;10.528;2024-01-10T03:37:23;9.15;;;4.50;;
76107;SDS011;64834;52.516;10.528;2024-01-10T03:39:48;7.65;;;3.60;;
76107;SDS011;64834;52.516;10.528;2024-01-10T03:42:14;10.32;;;3.75;;
76107;SDS011;64834;52.516;10.528;2024-01-10T03:44:40;7.97;;;4.50;;
76107;SDS011;64834;52.516;10.528;2024-01-10T03:47:06;8.32;;;3.88;;
76107;SDS011;64834;52.516;10.528;2024-01-10T03:49:31;11.75;;;3.50;;
76107;SDS011;64834;52.516;10.528;2024-01-10T03:51:56;12.00;;;4.95;;
76107;SDS011;64834;52.516;10.528;2024-01-10T03:54:22;8.77;;;3.78;;
76107;SDS011;64834;52.516;10.528;2024-01-10T03:56:47;13.55;;;4.43;;
76107;SDS011;64834;52.516;10.528;2024-01-10T03:59:12;8.07;;;4.13;;
76107;SDS011;64834;52.516;10.528;2024-01-10T04:01:37;11.23;;;3.92;;
76107;SDS011;64834;52.516;10.528;2024-01-10T04:04:04;10.63;;;3.25;;
76107;SDS011;64834;52.516;10.528;2024-01-10T04:06:32;13.23;;;4.65;;
76107;SDS011;64834;52.516;10.528;2024-01-10T04:08:58;9.48;;;3.80;;
76107;SDS011;64834;52.516;10.528;2024-01-10T04:11:23;11.88;;;4.72;;
76107;SDS011;64834;52.516;10.528;2024-01-10T04:13:49;10.68;;;4.18;;
76107;SDS011;64834;52.516;10.528;2024-01-10T04:16:14;11.02;;;4.43;;
76107;SDS011;64834;52.516;10.528;2024-01-10T04:18:40;9.35;;;4.47;;
76107;SDS011;64834;52.516;10.528;2024-01-10T04:21:05;9.90;;;5.13;;
76107;SDS011;64834;52.516;10.528;2024-01-10T04:23:31;15.30;;;5.32;;
76107;SDS011;64834;52.516;10.528;2024-01-10T04:25:58;12.20;;;5.15;;
76107;SDS011;64834;52.516;10.528;2024-01-10T04:28:23;11.73;;;4.57;;
76107;SDS011;64834;52.516;10.528;2024-01-10T04:30:48;14.23;;;5.57;;
76107;SDS011;64834;52.516;10.528;2024-01-10T04:33:14;10.80;;;4.65;;
76107;SDS011;64834;52.516;10.528;2024-01-10T04:35:39;18.17;;;6.70;;
76107;SDS011;64834;52.516;10.528;2024-01-10T04:38:04;11.80;;;5.45;;
76107;SDS011;64834;52.516;10.528;2024-01-10T04:40:30;15.32;;;5.78;;
76107;SDS011;64834;52.516;10.528;2024-01-10T04:42:55;12.10;;;5.07;;
76107;SDS011;64834;52.516;10.528;2024-01-10T04:45:20;10.23;;;4.65;;
76107;SDS011;64834;52.516;10.528;2024-01-10T04:47:46;16.08;;;5.20;;
76107;SDS011;64834;52.516;10.528;2024-01-10T04:50:11;9.77;;;5.05;;
76107;SDS011;64834;52.516;10.528;2024-01-10T04:52:36;15.63;;;6.25;;
76107;SDS011;64834;52.516;10.528;2024-01-10T04:55:02;13.40;;;5.40;;
76107;SDS011;64834;52.516;10.528;2024-01-10T04:57:28;16.52;;;5.88;;
76107;SDS011;64834;52.516;10.528;2024-01-10T04:59:53;10.88;;;4.43;;
76107;SDS011;64834;52.516;10.528;2024-01-10T05:02:18;14.07;;;5.95;;
76107;SDS011;64834;52.516;10.528;2024-01-10T05:04:44;12.15;;;5.72;;
76107;SDS011;64834;52.516;10.528;2024-01-10T05:07:10;12.60;;;5.90;;
76107;SDS011;64834;52.516;10.528;2024-01-10T05:09:36;10.05;;;4.95;;
76107;SDS011;64834;52.516;10.528;2024-01-10T05:12:01;18.55;;;5.10;;
76107;SDS011;64834;52.516;10.528;2024-01-10T05:14:27;13.07;;;4.35;;
76107;SDS011;64834;52.516;10.528;2024-01-10T05:16:52;13.20;;;5.45;;
76107;SDS011;64834;52.516;10.528;2024-01-10T05:19:18;12.00;;;5.03;;
76107;SDS011;64834;52.516;10.528;2024-01-10T05:21:44;11.68;;;5.32;;
76107;SDS011;64834;52.516;10.528;2024-01-10T05:24:09;17.20;;;5.57;;
76107;SDS011;64834;52.516;10.528;2024-01-10T05:26:34;12.13;;;5.47;;
76107;SDS011;64834;52.516;10.528;2024-01-10T05:29:00;11.55;;;4.35;;
76107;SDS011;64834;52.516;10.528;2024-01-10T05:31:26;12.45;;;5.75;;
76107;SDS011;64834;52.516;10.528;2024-01-10T05:33:51;11.18;;;5.05;;
76107;SDS011;64834;52.516;10.528;2024-01-10T05:36:21;9.65;;;4.30;;
76107;SDS011;64834;52.516;10.528;2024-01-10T05:38:47;12.55;;;5.25;;
76107;SDS011;64834;52.516;10.528;2024-01-10T05:41:12;13.07;;;6.03;;
76107;SDS011;64834;52.516;10.528;2024-01-10T05:43:39;11.60;;;5.45;;
76107;SDS011;64834;52.516;10.528;2024-01-10T05:46:04;11.85;;;4.88;;
76107;SDS011;64834;52.516;10.528;2024-01-10T05:48:30;12.80;;;5.35;;
76107;SDS011;64834;52.516;10.528;2024-01-10T05:50:55;17.35;;;6.25;;
76107;SDS011;64834;52.516;10.528;2024-01-10T05:53:21;15.32;;;6.80;;
76107;SDS011;64834;52.516;10.528;2024-01-10T05:55:47;17.00;;;5.10;;
76107;SDS011;64834;52.516;10.528;2024-01-10T05:58:12;14.65;;;6.35;;
76107;SDS011;64834;52.516;10.528;2024-01-10T06:00:38;14.30;;;6.55;;
76107;SDS011;64834;52.516;10.528;2024-01-10T06:03:03;12.85;;;4.97;;
76107;SDS011;64834;52.516;10.528;2024-01-10T06:05:29;14.57;;;5.63;;
76107;SDS011;64834;52.516;10.528;2024-01-10T06:07:56;14.57;;;5.65;;
76107;SDS011;64834;52.516;10.528;2024-01-10T06:10:22;13.82;;;6.15;;
76107;SDS011;64834;52.516;10.528;2024-01-10T06:12:47;11.90;;;5.90;;
76107;SDS011;64834;52.516;10.528;2024-01-10T06:15:13;16.77;;;6.68;;
76107;SDS011;64834;52.516;10.528;2024-01-10T06:17:39;16.63;;;7.45;;
76107;SDS011;64834;52.516;10.528;2024-01-10T06:20:04;17.80;;;7.18;;
76107;SDS011;64834;52.516;10.528;2024-01-10T06:22:31;14.38;;;6.47;;
76107;SDS011;64834;52.516;10.528;2024-01-10T06:24:57;18.48;;;5.45;;
76107;SDS011;64834;52.516;10.528;2024-01-10T06:27:22;16.73;;;6.38;;
76107;SDS011;64834;52.516;10.528;2024-01-10T06:29:48;13.65;;;5.65;;
76107;SDS011;64834;52.516;10.528;2024-01-10T06:32:13;17.17;;;6.13;;
76107;SDS011;64834;52.516;10.528;2024-01-10T06:34:39;14.52;;;5.07;;
76107;SDS011;64834;52.516;10.528;2024-01-10T06:37:05;16.77;;;6.38;;
76107;SDS011;64834;52.516;10.528;2024-01-10T06:39:32;15.55;;;5.60;;
76107;SDS011;64834;52.516;10.528;2024-01-10T06:42:00;17.83;;;5.70;;
76107;SDS011;64834;52.516;10.528;2024-01-10T06:44:25;12.30;;;5.28;;
76107;SDS011;64834;52.516;10.528;2024-01-10T06:46:52;16.25;;;6.18;;
76107;SDS011;64834;52.516;10.528;2024-01-10T06:49:18;17.25;;;6.70;;
76107;SDS011;64834;52.516;10.528;2024-01-10T06:51:43;17.13;;;7.00;;
76107;SDS011;64834;52.516;10.528;2024-01-10T06:54:08;19.13;;;7.00;;
76107;SDS011;64834;52.516;10.528;2024-01-10T06:56:34;16.60;;;7.07;;
76107;SDS011;64834;52.516;10.528;2024-01-10T06:59:00;19.27;;;7.75;;
76107;SDS011;64834;52.516;10.528;2024-01-10T07:01:26;21.52;;;8.63;;
76107;SDS011;64834;52.516;10.528;2024-01-10T07:03:52;20.45;;;7.93;;
76107;SDS011;64834;52.516;10.528;2024-01-10T07:06:19;18.48;;;8.63;;
76107;SDS011;64834;52.516;10.528;2024-01-10T07:08:46;18.17;;;7.13;;
76107;SDS011;64834;52.516;10.528;2024-01-10T07:11:12;20.92;;;6.88;;
76107;SDS011;64834;52.516;10.528;2024-01-10T07:13:38;15.40;;;6.47;;
76107;SDS011;64834;52.516;10.528;2024-01-10T07:16:04;14.73;;;6.22;;
76107;SDS011;64834;52.516;10.528;2024-01-10T07:18:29;20.40;;;7.30;;
76107;SDS011;64834;52.516;10.528;2024-01-10T07:20:55;15.00;;;7.68;;
76107;SDS011;64834;52.516;10.528;2024-01-10T07:23:21;18.70;;;6.65;;
76107;SDS011;64834;52.516;10.528;2024-01-10T07:25:48;16.52;;;7.68;;
76107;SDS011;64834;52.516;10.528;2024-01-10T07:28:14;13.73;;;6.43;;
76107;SDS011;64834;52.516;10.528;2024-01-10T07:30:40;19.92;;;7.85;;
76107;SDS011;64834;52.516;10.528;2024-01-10T07:33:05;23.50;;;10.43;;
76107;SDS011;64834;52.516;10.528;2024-01-10T07:35:31;20.88;;;8.90;;
76107;SDS011;64834;52.516;10.528;2024-01-10T07:37:56;20.65;;;8.30;;
76107;SDS011;64834;52.516;10.528;2024-01-10T07:40:22;15.80;;;6.68;;
76107;SDS011;64834;52.516;10.528;2024-01-10T07:42:50;17.80;;;7.70;;
76107;SDS011;64834;52.516;10.528;2024-01-10T07:45:15;19.50;;;8.32;;
76107;SDS011;64834;52.516;10.528;2024-01-10T07:47:41;21.85;;;7.75;;
76107;SDS011;64834;52.516;10.528;2024-01-10T07:50:07;22.73;;;9.88;;
76107;SDS011;64834;52.516;10.528;2024-01-10T07:52:33;26.08;;;9.38;;
76107;SDS011;64834;52.516;10.528;2024-01-10T07:54:59;22.05;;;8.77;;
76107;SDS011;64834;52.516;10.528;2024-01-10T07:57:25;19.52;;;7.07;;
76107;SDS011;64834;52.516;10.528;2024-01-10T07:59:51;16.10;;;7.25;;
76107;SDS011;64834;52.516;10.528;2024-01-10T08:02:17;14.15;;;6.43;;
76107;SDS011;64834;52.516;10.528;2024-01-10T08:04:42;15.60;;;5.57;;
76107;SDS011;64834;52.516;10.528;2024-01-10T08:07:08;18.17;;;8.55;;
76107;SDS011;64834;52.516;10.528;2024-01-10T08:09:33;13.65;;;6.57;;
76107;SDS011;64834;52.516;10.528;2024-01-10T08:11:58;11.73;;;6.75;;
76107;SDS011;64834;52.516;10.528;2024-01-10T08:14:24;14.85;;;5.95;;
76107;SDS011;64834;52.516;10.528;2024-01-10T08:16:49;14.88;;;6.53;;
76107;SDS011;64834;52.516;10.528;2024-01-10T08:19:16;21.85;;;8.65;;
76107;SDS011;64834;52.516;10.528;2024-01-10T08:21:41;19.83;;;8.27;;
76107;SDS011;64834;52.516;10.528;2024-01-10T08:24:06;23.98;;;9.40;;
76107;SDS011;64834;52.516;10.528;2024-01-10T08:26:31;21.70;;;6.70;;
76107;SDS011;64834;52.516;10.528;2024-01-10T08:28:57;23.50;;;8.35;;
76107;SDS011;64834;52.516;10.528;2024-01-10T08:31:22;26.08;;;8.57;;
76107;SDS011;64834;52.516;10.528;2024-01-10T08:33:48;18.75;;;7.38;;
76107;SDS011;64834;52.516;10.528;2024-01-10T08:36:14;21.75;;;9.35;;
76107;SDS011;64834;52.516;10.528;2024-01-10T08:38:42;21.33;;;8.73;;
76107;SDS011;64834;52.516;10.528;2024-01-10T08:41:07;16.58;;;6.45;;
76107;SDS011;64834;52.516;10.528;2024-01-10T08:43:33;19.85;;;8.55;;
76107;SDS011;64834;52.516;10.528;2024-01-10T08:45:59;28.42;;;10.32;;
76107;SDS011;64834;52.516;10.528;2024-01-10T08:48:24;17.92;;;8.30;;
76107;SDS011;64834;52.516;10.528;2024-01-10T08:50:50;24.77;;;7.15;;
76107;SDS011;64834;52.516;10.528;2024-01-10T08:53:15;16.80;;;7.97;;
76107;SDS011;64834;52.516;10.528;2024-01-10T08:55:41;17.95;;;7.28;;
76107;SDS011;64834;52.516;10.528;2024-01-10T08:58:06;19.38;;;7.65;;
76107;SDS011;64834;52.516;10.528;2024-01-10T09:00:32;12.48;;;8.40;;
76107;SDS011;64834;52.516;10.528;2024-01-10T09:02:57;23.05;;;8.55;;
76107;SDS011;64834;52.516;10.528;2024-01-10T09:05:22;14.07;;;6.68;;
76107;SDS011;64834;52.516;10.528;2024-01-10T09:07:48;20.05;;;7.63;;
76107;SDS011;64834;52.516;10.528;2024-01-10T09:10:14;22.20;;;9.02;;
76107;SDS011;64834;52.516;10.528;2024-01-10T09:12:39;16.65;;;7.65;;
76107;SDS011;64834;52.516;10.528;2024-01-10T09:15:08;24.83;;;9.63;;
76107;SDS011;64834;52.516;10.528;2024-01-10T09:17:38;24.55;;;10.02;;
76107;SDS011;64834;52.516;10.528;2024-01-10T09:20:03;22.33;;;9.23;;
76107;SDS011;64834;52.516;10.528;2024-01-10T09:22:29;24.58;;;9.77;;
76107;SDS011;64834;52.516;10.528;2024-01-10T09:24:54;32.70;;;11.32;;
76107;SDS011;64834;52.516;10.528;2024-01-10T09:27:19;11.82;;;5.07;;
76107;SDS011;64834;52.516;10.528;2024-01-10T09:29:45;23.95;;;10.57;;
76107;SDS011;64834;52.516;10.528;2024-01-10T09:32:10;20.13;;;8.48;;
76107;SDS011;64834;52.516;10.528;2024-01-10T09:34:35;25.60;;;10.35;;
76107;SDS011;64834;52.516;10.528;2024-01-10T09:37:01;10.45;;;4.45;;
76107;SDS011;64834;52.516;10.528;2024-01-10T09:39:27;20.63;;;8.10;;
76107;SDS011;64834;52.516;10.528;2024-01-10T09:41:52;17.58;;;8.65;;
76107;SDS011;64834;52.516;10.528;2024-01-10T09:44:18;24.65;;;9.88;;
76107;SDS011;64834;52.516;10.528;2024-01-10T09:46:46;19.17;;;7.40;;
76107;SDS011;64834;52.516;10.528;2024-01-10T09:49:14;18.20;;;8.35;;
76107;SDS011;64834;52.516;10.528;2024-01-10T09:51:39;10.98;;;5.78;;
76107;SDS011;64834;52.516;10.528;2024-01-10T09:54:05;24.98;;;11.27;;
76107;SDS011;64834;52.516;10.528;2024-01-10T09:56:32;21.63;;;10.23;;
76107;SDS011;64834;52.516;10.528;2024-01-10T09:59:01;22.33;;;9.20;;
76107;SDS011;64834;52.516;10.528;2024-01-10T10:01:26;19.77;;;8.77;;
76107;SDS011;64834;52.516;10.528;2024-01-10T10:03:52;25.85;;;10.73;;
76107;SDS011;64834;52.516;10.528;2024-01-10T10:06:21;22.30;;;9.57;;
76107;SDS011;64834;52.516;10.528;2024-01-10T10:08:46;15.05;;;6.30;;
76107;SDS011;64834;52.516;10.528;2024-01-10T10:11:12;18.52;;;8.65;;
76107;SDS011;64834;52.516;10.528;2024-01-10T10:13:40;16.80;;;6.68;;
76107;SDS011;64834;52.516;10.528;2024-01-10T10:16:07;8.05;;;3.55;;
76107;SDS011;64834;52.516;10.528;2024-01-10T10:18:34;19.95;;;7.57;;
76107;SDS011;64834;52.516;10.528;2024-01-10T10:23:36;18.50;;;6.97;;
76107;SDS011;64834;52.516;10.528;2024-01-10T10:26:15;25.27;;;10.10;;
76107;SDS011;64834;52.516;10.528;2024-01-10T10:28:45;28.92;;;9.45;;
76107;SDS011;64834;52.516;10.528;2024-01-10T10:31:14;21.80;;;8.68;;
76107;SDS011;64834;52.516;10.528;2024-01-10T10:33:41;28.38;;;8.93;;
76107;SDS011;64834;52.516;10.528;2024-01-10T10:36:08;16.98;;;7.13;;
76107;SDS011;64834;52.516;10.528;2024-01-10T10:38:33;14.65;;;7.70;;
76107;SDS011;64834;52.516;10.528;2024-01-10T10:40:59;21.38;;;9.02;;
76107;SDS011;64834;52.516;10.528;2024-01-10T10:43:25;22.73;;;9.50;;
76107;SDS011;64834;52.516;10.528;2024-01-10T10:45:50;20.42;;;8.50;;
76107;SDS011;64834;52.516;10.528;2024-01-10T10:48:19;25.00;;;9.05;;
76107;SDS011;64834;52.516;10.528;2024-01-10T10:50:59;24.23;;;8.50;;
76107;SDS011;64834;52.516;10.528;2024-01-10T10:53:31;28.00;;;9.88;;
76107;SDS011;64834;52.516;10.528;2024-01-10T10:55:58;22.33;;;8.68;;
76107;SDS011;64834;52.516;10.528;2024-01-10T10:58:25;22.13;;;7.28;;
76107;SDS011;64834;52.516;10.528;2024-01-10T11:00:50;21.08;;;8.35;;
76107;SDS011;64834;52.516;10.528;2024-01-10T11:03:17;23.90;;;10.27;;
76107;SDS011;64834;52.516;10.528;2024-01-10T11:05:43;21.50;;;9.55;;
76107;SDS011;64834;52.516;10.528;2024-01-10T11:08:11;23.60;;;9.50;;
76107;SDS011;64834;52.516;10.528;2024-01-10T11:10:39;20.77;;;8.63;;
76107;SDS011;64834;52.516;10.528;2024-01-10T11:21:24;27.27;;;9.35;;
76107;SDS011;64834;52.516;10.528;2024-01-10T11:24:04;26.25;;;9.68;;
76107;SDS011;64834;52.516;10.528;2024-01-10T11:26:31;23.70;;;9.23;;
76107;SDS011;64834;52.516;10.528;2024-01-10T11:28:58;26.05;;;8.95;;
76107;SDS011;64834;52.516;10.528;2024-01-10T11:31:29;28.55;;;10.13;;
76107;SDS011;64834;52.516;10.528;2024-01-10T11:33:56;23.20;;;9.55;;
76107;SDS011;64834;52.516;10.528;2024-01-10T11:36:22;26.45;;;9.60;;
76107;SDS011;64834;52.516;10.528;2024-01-10T11:41:20;27.77;;;10.03;;
76107;SDS011;64834;52.516;10.528;2024-01-10T11:46:56;21.70;;;9.40;;
76107;SDS011;64834;52.516;10.528;2024-01-10T11:49:22;23.55;;;8.82;;
76107;SDS011;64834;52.516;10.528;2024-01-10T11:51:50;25.23;;;9.05;;
76107;SDS011;64834;52.516;10.528;2024-01-10T11:54:40;26.35;;;10.95;;
76107;SDS011;64834;52.516;10.528;2024-01-10T11:57:07;22.52;;;9.55;;
76107;SDS011;64834;52.516;10.528;2024-01-10T11:59:37;24.70;;;8.63;;
76107;SDS011;64834;52.516;10.528;2024-01-10T12:02:05;22.65;;;8.93;;
76107;SDS011;64834;52.516;10.528;2024-01-10T12:04:34;17.20;;;6.22;;
76107;SDS011;64834;52.516;10.528;2024-01-10T12:09:26;19.25;;;7.53;;
76107;SDS011;64834;52.516;10.528;2024-01-10T12:11:51;12.63;;;5.35;;
76107;SDS011;64834;52.516;10.528;2024-01-10T12:14:17;14.57;;;5.60;;
76107;SDS011;64834;52.516;10.528;2024-01-10T12:16:42;16.95;;;6.93;;
76107;SDS011;64834;52.516;10.528;2024-01-10T12:19:08;19.60;;;7.78;;
76107;SDS011;64834;52.516;10.528;2024-01-10T12:21:33;13.15;;;4.35;;
76107;SDS011;64834;52.516;10.528;2024-01-10T12:23:59;12.10;;;5.03;;
76107;SDS011;64834;52.516;10.528;2024-01-10T12:26:24;18.58;;;7.13;;
76107;SDS011;64834;52.516;10.528;2024-01-10T12:28:56;16.50;;;7.03;;
76107;SDS011;64834;52.516;10.528;2024-01-10T12:31:23;17.52;;;7.30;;
76107;SDS011;64834;52.516;10.528;2024-01-10T12:33:49;9.85;;;3.95;;
76107;SDS011;64834;52.516;10.528;2024-01-10T12:36:16;21.98;;;6.93;;
76107;SDS011;64834;52.516;10.528;2024-01-10T12:38:42;19.85;;;7.88;;
76107;SDS011;64834;52.516;10.528;2024-01-10T12:41:09;19.35;;;7.30;;
76107;SDS011;64834;52.516;10.528;2024-01-10T12:43:35;17.30;;;7.40;;
76107;SDS011;64834;52.516;10.528;2024-01-10T12:46:07;17.15;;;7.43;;
76107;SDS011;64834;52.516;10.528;2024-01-10T12:48:35;24.20;;;8.43;;
76107;SDS011;64834;52.516;10.528;2024-01-10T12:51:03;17.33;;;8.30;;
76107;SDS011;64834;52.516;10.528;2024-01-10T12:53:31;20.05;;;7.75;;
76107;SDS011;64834;52.516;10.528;2024-01-10T12:55:58;16.15;;;7.40;;
76107;SDS011;64834;52.516;10.528;2024-01-10T12:58:24;17.40;;;6.75;;
76107;SDS011;64834;52.516;10.528;2024-01-10T13:00:49;19.92;;;8.50;;
76107;SDS011;64834;52.516;10.528;2024-01-10T13:03:15;17.33;;;7.90;;
76107;SDS011;64834;52.516;10.528;2024-01-10T13:05:40;21.85;;;9.43;;
76107;SDS011;64834;52.516;10.528;2024-01-10T13:08:06;18.92;;;7.07;;
76107;SDS011;64834;52.516;10.528;2024-01-10T13:10:32;16.88;;;8.27;;
76107;SDS011;64834;52.516;10.528;2024-01-10T13:12:58;16.40;;;7.78;;
76107;SDS011;64834;52.516;10.528;2024-01-10T13:15:23;18.60;;;7.38;;
76107;SDS011;64834;52.516;10.528;2024-01-10T13:17:51;19.73;;;7.68;;
76107;SDS011;64834;52.516;10.528;2024-01-10T13:20:16;22.38;;;7.80;;
76107;SDS011;64834;52.516;10.528;2024-01-10T13:22:42;18.75;;;7.80;;
76107;SDS011;64834;52.516;10.528;2024-01-10T13:25:08;19.15;;;7.97;;
76107;SDS011;64834;52.516;10.528;2024-01-10T13:27:33;19.80;;;8.30;;
76107;SDS011;64834;52.516;10.528;2024-01-10T13:29:59;17.60;;;5.38;;
76107;SDS011;64834;52.516;10.528;2024-01-10T13:32:24;19.30;;;7.90;;
76107;SDS011;64834;52.516;10.528;2024-01-10T13:34:50;21.85;;;8.23;;
76107;SDS011;64834;52.516;10.528;2024-01-10T13:37:16;20.38;;;8.00;;
76107;SDS011;64834;52.516;10.528;2024-01-10T13:39:41;17.33;;;8.48;;
76107;SDS011;64834;52.516;10.528;2024-01-10T13:42:06;19.30;;;7.55;;
76107;SDS011;64834;52.516;10.528;2024-01-10T13:44:32;16.55;;;7.07;;
76107;SDS011;64834;52.516;10.528;2024-01-10T13:46:57;19.83;;;8.23;;
76107;SDS011;64834;52.516;10.528;2024-01-10T13:49:22;23.02;;;8.73;;
76107;SDS011;64834;52.516;10.528;2024-01-10T13:51:48;20.40;;;8.65;;
76107;SDS011;64834;52.516;10.528;2024-01-10T13:54:13;21.73;;;9.02;;
76107;SDS011;64834;52.516;10.528;2024-01-10T13:56:38;16.35;;;6.90;;
76107;SDS011;64834;52.516;10.528;2024-01-10T13:59:05;19.33;;;8.23;;
76107;SDS011;64834;52.516;10.528;2024-01-10T14:01:30;22.77;;;9.10;;
76107;SDS011;64834;52.516;10.528;2024-01-10T14:03:55;19.08;;;8.38;;
76107;SDS011;64834;52.516;10.528;2024-01-10T14:06:21;25.35;;;9.73;;
76107;SDS011;64834;52.516;10.528;2024-01-10T14:08:46;19.45;;;9.13;;
76107;SDS011;64834;52.516;10.528;2024-01-10T14:11:13;19.70;;;8.98;;
76107;SDS011;64834;52.516;10.528;2024-01-10T14:13:39;17.85;;;7.53;;
76107;SDS011;64834;52.516;10.528;2024-01-10T14:16:04;18.52;;;7.85;;
76107;SDS011;64834;52.516;10.528;2024-01-10T14:18:30;18.02;;;7.80;;
76107;SDS011;64834;52.516;10.528;2024-01-10T14:20:55;17.75;;;8.20;;
76107;SDS011;64834;52.516;10.528;2024-01-10T14:23:20;23.83;;;8.85;;
76107;SDS011;64834;52.516;10.528;2024-01-10T14:25:46;20.98;;;8.05;;
76107;SDS011;64834;52.516;10.528;2024-01-10T14:28:11;22.10;;;8.98;;
76107;SDS011;64834;52.516;10.528;2024-01-10T14:30:37;20.13;;;9.02;;
76107;SDS011;64834;52.516;10.528;2024-01-10T14:33:03;20.85;;;8.10;;
76107;SDS011;64834;52.516;10.528;2024-01-10T14:35:29;15.32;;;6.05;;